Last 48 Hours

Kelseyville

Hourly Data | America/Los_Angeles
as of 10/26/20 9:14 AM PDT
Date & Time Temp (°F) WindChill (°F) RH (%) Dew Pt (°F) Wet Bulb (°F) Wind Dir (°) Wind Spd (mph) Wind Gust (mph) Wind Gst Dir (°) Solar Rad (W/m2) Leaf Wet (mins) Latest Rain (In) Daily Rain (In) Daily Min Temp (°F) Daily Max Temp (°F) Daily ETo (in) Daily Leaf Wet Hrs (hrs)
10/26/20 - 0900 49.6 49.2 16 4.8 35.4 SSW | 201 3.0 8.3 SSW | 205 129 0.0 0.00 0.00 45.8 57.5 0.020 0.0
10/26/20 - 0800 50.2 - 14 2.0 35.3 S | 169 3.3 12.9 NE | 44 6 0.0 0.00 0.00 45.8 57.5 0.017 0.0
10/26/20 - 0700 55.4 - 10 -1.3 37.7 ESE | 104 5.1 17.8 NNE | 21 0 0.0 0.00 0.00 50.6 57.2 0.016 0.0
10/26/20 - 0600 55.2 - 10 0.3 37.7 SE | 126 4.0 13.2 E | 101 0 0.0 0.00 0.00 50.6 56.6 0.014 0.0
10/26/20 - 0500 54.7 - 11 0.6 37.5 ESE | 105 6.2 15.1 ESE | 104 0 0.0 0.00 0.00 50.6 56.6 0.013 0.0
10/26/20 - 0400 54.1 - 12 1.8 37.4 ESE | 111 6.6 18.8 E | 99 0 0.0 0.00 0.00 50.6 56.6 0.010 0.0
10/26/20 - 0300 54.4 - 12 2.5 37.6 E | 91 8.1 20.2 E | 81 0 0.0 0.00 0.00 50.6 56.6 0.007 0.0
10/26/20 - 0200 55.5 - 12 4.2 38.4 ENE | 72 15.5 27.6 ENE | 68 0 0.0 0.00 0.00 50.6 56.6 0.004 0.0
10/26/20 - 0100 50.4 - 18 7.8 36.2 S | 172 3.6 14.5 ENE | 74 0 0.0 0.00 0.00 34.1 70.4 0.130 6.9
10/26/20 - 0000 49.5 - 21 10.6 36.2 SW | 220 2.8 11.4 W | 259 0 0.0 0.00 0.00 34.1 70.4 0.129 6.9
10/25/20 - 2300 50.5 - 21 11.5 37.0 E | 87 2.1 7.2 NE | 41 0 0.0 0.00 0.00 34.1 70.4 0.128 6.9
10/25/20 - 2200 57.0 - 15 9.8 39.9 NE | 52 4.1 12.7 NNE | 22 0 0.0 0.00 0.00 34.1 70.4 0.128 6.9
10/25/20 - 2100 55.5 - 19 13.0 39.8 E | 85 4.3 15.6 NNE | 13 0 0.0 0.00 0.00 34.1 70.4 0.126 6.9
10/25/20 - 2000 58.4 - 15 10.6 40.7 NE | 45 7.1 22.8 NNE | 24 0 0.0 0.00 0.00 34.1 70.4 0.124 6.9
10/25/20 - 1900 60.9 - 14 11.4 42.0 NE | 50 7.5 16.9 ENE | 75 4 0.0 0.00 0.00 34.1 70.4 0.122 6.9
10/25/20 - 1800 66.0 - 12 12.7 44.3 ENE | 59 9.3 16.7 ENE | 61 110 0.0 0.00 0.00 34.1 70.4 0.118 6.9
10/25/20 - 1700 69.0 - 10 10.1 45.2 NE | 40 10.0 22.8 NE | 35 283 0.0 0.00 0.00 34.1 70.4 0.110 6.9
10/25/20 - 1600 69.2 - 13 15.8 46.3 ENE | 69 10.3 21.7 NE | 51 441 0.0 0.00 0.00 34.1 70.4 0.097 6.9
10/25/20 - 1500 67.7 - 24 29.4 48.8 E | 86 9.8 21.0 E | 87 551 0.0 0.00 0.00 34.1 69.0 0.080 6.9
10/25/20 - 1400 66.8 - 27 32.1 49.3 E | 85 11.0 19.7 ENE | 73 606 0.0 0.00 0.00 34.1 68.0 0.062 6.9
10/25/20 - 1300 65.9 - 28 31.5 48.8 E | 87 10.1 20.8 E | 90 599 0.0 0.00 0.00 34.1 66.7 0.044 6.9
10/25/20 - 1200 62.8 - 47 41.4 51.6 NNE | 25 4.6 17.5 ENE | 75 545 0.0 0.00 0.00 34.1 66.3 0.026 6.9
10/25/20 - 1100 57.5 - 65 45.7 51.6 W | 267 1.8 5.7 NNW | 328 436 0.0 0.00 0.00 34.1 60.5 0.013 6.9
10/25/20 - 1000 49.7 - 86 45.6 48.1 W | 275 1.2 5.0 NW | 320 253 14.6 0.00 0.00 34.1 54.2 0.004 6.9
10/25/20 - 0900 39.6 - 96 38.5 39.2 S | 189 0.5 2.8 SSW | 209 78 60.0 0.00 0.00 34.1 43.8 0.000 6.7
10/25/20 - 0800 35.2 - 95 33.9 34.7 SSE | 150 0.2 2.0 SSW | 196 6 60.0 0.00 0.00 34.1 41.9 0.000 5.7
10/25/20 - 0700 36.4 - 96 35.2 35.9 S | 185 0.6 2.2 SSW | 204 0 60.0 0.00 0.00 35.7 41.9 0.000 4.7
10/25/20 - 0600 36.4 - 95 35.3 36.0 WSW | 249 0.3 2.0 WSW | 252 0 60.0 0.00 0.00 35.9 41.9 0.000 3.7
10/25/20 - 0500 37.7 - 95 36.3 37.2 S | 189 0.1 1.5 S | 191 0 60.0 0.00 0.00 36.9 41.9 0.000 2.7
10/25/20 - 0400 38.6 - 93 36.8 37.9 SSW | 205 0.8 2.2 S | 187 0 60.0 0.00 0.00 38.1 41.9 0.000 1.7
10/25/20 - 0300 40.5 - 95 39.1 40.1 S | 188 0.6 3.5 S | 175 0 40.2 0.00 0.00 39.3 41.9 0.000 0.7
10/25/20 - 0200 40.6 - 92 38.5 39.8 SW | 218 0.5 2.2 S | 178 0 0.0 0.00 0.00 39.6 41.6 0.000 0.0
10/25/20 - 0100 41.9 - 91 39.5 41.0 SSW | 200 0.6 2.6 S | 183 0 0.0 0.00 0.00 36.2 75.0 0.100 0.0
10/25/20 - 0000 43.8 - 91 41.2 42.9 SSE | 159 0.2 1.8 S | 191 0 0.0 0.00 0.00 36.2 75.0 0.100 0.0
10/24/20 - 2300 46.1 - 87 42.5 44.7 S | 182 0.6 2.6 S | 185 0 0.0 0.00 0.00 36.2 75.0 0.100 0.0
10/24/20 - 2200 50.0 - 84 45.4 48.2 S | 178 1.6 4.2 S | 181 0 0.0 0.00 0.00 36.2 75.0 0.100 0.0
10/24/20 - 2100 53.0 - 79 46.6 50.2 S | 183 2.2 4.6 S | 188 0 0.0 0.00 0.00 36.2 75.0 0.100 0.0
10/24/20 - 2000 55.6 - 72 46.8 51.4 S | 186 2.0 4.6 S | 191 0 0.0 0.00 0.00 36.2 75.0 0.100 0.0
10/24/20 - 1900 61.0 - 62 47.6 54.0 S | 191 2.7 7.0 SSW | 211 5 0.0 0.00 0.00 36.2 75.0 0.100 0.0
10/24/20 - 1800 66.5 - 51 47.7 55.9 SSW | 209 5.6 11.8 S | 186 105 0.0 0.00 0.00 36.2 75.0 0.100 0.0
10/24/20 - 1700 70.8 - 38 44.2 55.5 SW | 227 5.5 12.7 SSW | 210 266 0.0 0.00 0.00 36.2 75.0 0.096 0.0
10/24/20 - 1600 73.5 - 30 40.3 54.6 SW | 235 4.9 13.6 WSW | 249 418 0.0 0.00 0.00 36.2 75.0 0.088 0.0
10/24/20 - 1500 73.7 - 27 37.5 53.5 SW | 220 5.0 12.1 SSW | 213 534 0.0 0.00 0.00 36.2 75.0 0.076 0.0
10/24/20 - 1400 72.9 - 27 37.2 53.2 WSW | 240 3.3 9.2 SW | 216 597 0.0 0.00 0.00 36.2 74.8 0.060 0.0
10/24/20 - 1300 68.7 - 36 40.6 53.2 NNE | 23 3.0 7.7 N | 11 600 0.0 0.00 0.00 36.2 71.1 0.044 0.0
10/24/20 - 1200 65.3 - 43 42.3 52.8 NNE | 26 4.7 9.2 N | 9 544 0.0 0.00 0.00 36.2 67.0 0.029 0.0
10/24/20 - 1100 62.3 - 48 42.2 51.7 W | 267 1.3 4.4 NE | 34 438 0.0 0.00 0.00 36.2 65.2 0.015 0.0
10/24/20 - 1000 55.2 - 61 41.8 48.6 SSW | 200 0.9 4.2 E | 86 289 0.0 0.00 0.00 36.2 59.9 0.006 0.0
10/24/20 - 0900 42.5 - 85 38.1 40.7 SSW | 203 0.9 3.5 S | 190 130 0.0 0.00 0.00 36.2 49.4 0.001 0.0
Max 73.7 - 96 47.7 55.9 - 15.5 27.6 - 606 60.0 0.00 0.00 50.6 75.0 0.130 6.9
Avg 55.0 - 47 27.9 44.0 - 4.1 10.6 - 163 8.5 0.00 - - - - -
Min 35.2 - 10 -1.3 34.7 - 0.1 1.5 - 0 0.0 0.00 0.00 34.1 41.6 0.000 0.0
Total - - - - - - - - - - - 0.00 - - - - -